sensor_id;sensor_type;location;lat;lon;timestamp;temperature;humidity
48579;DHT22;34357;51.948;6.132;2023-12-22T00:01:22;6.00;88.70
48579;DHT22;34357;51.948;6.132;2023-12-22T00:03:48;5.90;88.80
48579;DHT22;34357;51.948;6.132;2023-12-22T00:06:15;5.90;88.80
48579;DHT22;34357;51.948;6.132;2023-12-22T00:08:41;5.90;89.00
48579;DHT22;34357;51.948;6.132;2023-12-22T00:11:07;5.90;89.00
48579;DHT22;34357;51.948;6.132;2023-12-22T00:13:33;5.90;89.00
48579;DHT22;34357;51.948;6.132;2023-12-22T00:15:59;5.90;89.10
48579;DHT22;34357;51.948;6.132;2023-12-22T00:18:26;6.00;88.90
48579;DHT22;34357;51.948;6.132;2023-12-22T00:20:52;5.90;88.90
48579;DHT22;34357;51.948;6.132;2023-12-22T00:23:18;6.00;88.90
48579;DHT22;34357;51.948;6.132;2023-12-22T00:25:44;6.00;88.70
48579;DHT22;34357;51.948;6.132;2023-12-22T00:28:10;6.00;88.80
48579;DHT22;34357;51.948;6.132;2023-12-22T00:30:36;6.00;88.90
48579;DHT22;34357;51.948;6.132;2023-12-22T00:33:02;6.10;88.90
48579;DHT22;34357;51.948;6.132;2023-12-22T00:35:27;6.10;89.20
48579;DHT22;34357;51.948;6.132;2023-12-22T00:37:53;6.20;88.90
48579;DHT22;34357;51.948;6.132;2023-12-22T00:40:19;6.20;88.90
48579;DHT22;34357;51.948;6.132;2023-12-22T00:42:45;6.20;89.10
48579;DHT22;34357;51.948;6.132;2023-12-22T00:45:10;6.20;89.30
48579;DHT22;34357;51.948;6.132;2023-12-22T00:47:36;6.30;89.30
48579;DHT22;34357;51.948;6.132;2023-12-22T00:50:02;6.30;89.10
48579;DHT22;34357;51.948;6.132;2023-12-22T00:52:30;6.30;89.30
48579;DHT22;34357;51.948;6.132;2023-12-22T00:54:56;6.00;88.80
48579;DHT22;34357;51.948;6.132;2023-12-22T00:57:22;5.90;89.40
48579;DHT22;34357;51.948;6.132;2023-12-22T00:59:48;5.80;89.70
48579;DHT22;34357;51.948;6.132;2023-12-22T01:02:17;5.70;89.50
48579;DHT22;34357;51.948;6.132;2023-12-22T01:04:43;5.80;89.20
48579;DHT22;34357;51.948;6.132;2023-12-22T01:07:10;5.90;88.40
48579;DHT22;34357;51.948;6.132;2023-12-22T01:09:36;5.90;88.10
48579;DHT22;34357;51.948;6.132;2023-12-22T01:12:05;5.90;88.00
48579;DHT22;34357;51.948;6.132;2023-12-22T01:14:32;5.90;88.30
48579;DHT22;34357;51.948;6.132;2023-12-22T01:16:58;5.80;88.80
48579;DHT22;34357;51.948;6.132;2023-12-22T01:19:27;5.70;89.10
48579;DHT22;34357;51.948;6.132;2023-12-22T01:21:53;5.70;89.30
48579;DHT22;34357;51.948;6.132;2023-12-22T01:24:19;5.70;89.30
48579;DHT22;34357;51.948;6.132;2023-12-22T01:26:44;5.60;89.60
48579;DHT22;34357;51.948;6.132;2023-12-22T01:29:10;5.60;89.40
48579;DHT22;34357;51.948;6.132;2023-12-22T01:31:36;5.60;89.00
48579;DHT22;34357;51.948;6.132;2023-12-22T01:34:01;5.60;88.90
48579;DHT22;34357;51.948;6.132;2023-12-22T01:36:27;5.60;88.90
48579;DHT22;34357;51.948;6.132;2023-12-22T01:38:53;5.60;88.80
48579;DHT22;34357;51.948;6.132;2023-12-22T01:41:18;5.70;88.40
48579;DHT22;34357;51.948;6.132;2023-12-22T01:43:44;5.70;88.50
48579;DHT22;34357;51.948;6.132;2023-12-22T01:46:11;5.70;88.40
48579;DHT22;34357;51.948;6.132;2023-12-22T01:48:38;5.80;87.90
48579;DHT22;34357;51.948;6.132;2023-12-22T01:51:04;5.80;88.00
48579;DHT22;34357;51.948;6.132;2023-12-22T01:53:31;5.80;87.90
48579;DHT22;34357;51.948;6.132;2023-12-22T01:55:59;5.90;87.70
48579;DHT22;34357;51.948;6.132;2023-12-22T01:58:26;5.90;88.10
48579;DHT22;34357;51.948;6.132;2023-12-22T02:00:53;5.90;87.90
48579;DHT22;34357;51.948;6.132;2023-12-22T02:03:19;5.80;87.80
48579;DHT22;34357;51.948;6.132;2023-12-22T02:05:46;5.80;87.50
48579;DHT22;34357;51.948;6.132;2023-12-22T02:08:12;5.70;87.70
48579;DHT22;34357;51.948;6.132;2023-12-22T02:10:38;5.70;87.90
48579;DHT22;34357;51.948;6.132;2023-12-22T02:13:04;5.70;87.90
48579;DHT22;34357;51.948;6.132;2023-12-22T02:15:31;5.60;88.20
48579;DHT22;34357;51.948;6.132;2023-12-22T02:18:18;5.60;88.50
48579;DHT22;34357;51.948;6.132;2023-12-22T02:20:45;5.60;88.80
48579;DHT22;34357;51.948;6.132;2023-12-22T02:23:11;5.60;88.90
48579;DHT22;34357;51.948;6.132;2023-12-22T02:25:37;5.50;89.10
48579;DHT22;34357;51.948;6.132;2023-12-22T02:28:08;5.50;89.30
48579;DHT22;34357;51.948;6.132;2023-12-22T02:33:36;5.60;89.40
48579;DHT22;34357;51.948;6.132;2023-12-22T02:36:06;5.60;89.40
48579;DHT22;34357;51.948;6.132;2023-12-22T02:38:35;5.60;89.50
48579;DHT22;34357;51.948;6.132;2023-12-22T02:41:02;5.60;89.50
48579;DHT22;34357;51.948;6.132;2023-12-22T02:43:28;5.60;89.40
48579;DHT22;34357;51.948;6.132;2023-12-22T02:45:54;5.60;89.30
48579;DHT22;34357;51.948;6.132;2023-12-22T02:48:20;5.70;89.30
48579;DHT22;34357;51.948;6.132;2023-12-22T02:50:45;5.70;89.40
48579;DHT22;34357;51.948;6.132;2023-12-22T02:53:11;5.70;89.40
48579;DHT22;34357;51.948;6.132;2023-12-22T02:55:37;5.80;89.50
48579;DHT22;34357;51.948;6.132;2023-12-22T02:58:03;5.80;89.60
48579;DHT22;34357;51.948;6.132;2023-12-22T03:00:28;5.90;89.60
48579;DHT22;34357;51.948;6.132;2023-12-22T03:02:54;5.90;89.90
48579;DHT22;34357;51.948;6.132;2023-12-22T03:05:20;5.90;90.30
48579;DHT22;34357;51.948;6.132;2023-12-22T03:07:45;5.90;90.60
48579;DHT22;34357;51.948;6.132;2023-12-22T03:10:11;5.90;90.90
48579;DHT22;34357;51.948;6.132;2023-12-22T03:12:37;5.80;90.90
48579;DHT22;34357;51.948;6.132;2023-12-22T03:15:04;5.80;91.10
48579;DHT22;34357;51.948;6.132;2023-12-22T03:17:30;5.80;91.30
48579;DHT22;34357;51.948;6.132;2023-12-22T03:19:56;5.90;91.30
48579;DHT22;34357;51.948;6.132;2023-12-22T03:22:22;5.80;91.40
48579;DHT22;34357;51.948;6.132;2023-12-22T03:24:47;5.80;91.30
48579;DHT22;34357;51.948;6.132;2023-12-22T03:27:13;5.80;91.50
48579;DHT22;34357;51.948;6.132;2023-12-22T03:29:42;5.80;91.60
48579;DHT22;34357;51.948;6.132;2023-12-22T03:32:08;5.40;91.60
48579;DHT22;34357;51.948;6.132;2023-12-22T03:34:34;5.10;92.00
48579;DHT22;34357;51.948;6.132;2023-12-22T03:37:00;5.00;92.50
48579;DHT22;34357;51.948;6.132;2023-12-22T03:39:25;4.90;92.30
48579;DHT22;34357;51.948;6.132;2023-12-22T03:41:51;4.80;92.00
48579;DHT22;34357;51.948;6.132;2023-12-22T03:44:17;4.70;92.10
48579;DHT22;34357;51.948;6.132;2023-12-22T03:46:42;4.70;92.30
48579;DHT22;34357;51.948;6.132;2023-12-22T03:49:08;4.60;92.20
48579;DHT22;34357;51.948;6.132;2023-12-22T03:51:34;4.60;92.40
48579;DHT22;34357;51.948;6.132;2023-12-22T03:53:59;4.60;92.60
48579;DHT22;34357;51.948;6.132;2023-12-22T03:56:26;4.60;92.70
48579;DHT22;34357;51.948;6.132;2023-12-22T03:58:51;4.60;92.80
48579;DHT22;34357;51.948;6.132;2023-12-22T04:01:17;4.60;93.00
48579;DHT22;34357;51.948;6.132;2023-12-22T04:03:43;4.60;93.10
48579;DHT22;34357;51.948;6.132;2023-12-22T04:06:09;4.70;93.10
48579;DHT22;34357;51.948;6.132;2023-12-22T04:08:34;4.60;93.20
48579;DHT22;34357;51.948;6.132;2023-12-22T04:11:00;4.70;93.20
48579;DHT22;34357;51.948;6.132;2023-12-22T04:13:26;4.70;93.30
48579;DHT22;34357;51.948;6.132;2023-12-22T04:15:51;4.70;93.40
48579;DHT22;34357;51.948;6.132;2023-12-22T04:18:17;4.70;93.40
48579;DHT22;34357;51.948;6.132;2023-12-22T04:20:43;4.70;93.30
48579;DHT22;34357;51.948;6.132;2023-12-22T04:23:08;4.70;93.30
48579;DHT22;34357;51.948;6.132;2023-12-22T04:25:34;4.70;93.30
48579;DHT22;34357;51.948;6.132;2023-12-22T04:28:00;4.60;93.20
48579;DHT22;34357;51.948;6.132;2023-12-22T04:30:25;4.60;93.20
48579;DHT22;34357;51.948;6.132;2023-12-22T04:32:53;4.60;93.10
48579;DHT22;34357;51.948;6.132;2023-12-22T04:35:19;4.60;92.90
48579;DHT22;34357;51.948;6.132;2023-12-22T04:37:45;4.60;92.90
48579;DHT22;34357;51.948;6.132;2023-12-22T04:40:11;4.70;92.80
48579;DHT22;34357;51.948;6.132;2023-12-22T04:42:36;4.70;92.70
48579;DHT22;34357;51.948;6.132;2023-12-22T04:45:02;4.80;92.60
48579;DHT22;34357;51.948;6.132;2023-12-22T04:47:28;4.80;92.50
48579;DHT22;34357;51.948;6.132;2023-12-22T04:49:54;4.90;92.30
48579;DHT22;34357;51.948;6.132;2023-12-22T04:52:20;5.00;92.10
48579;DHT22;34357;51.948;6.132;2023-12-22T04:54:45;5.00;91.90
48579;DHT22;34357;51.948;6.132;2023-12-22T04:57:11;5.10;92.00
48579;DHT22;34357;51.948;6.132;2023-12-22T04:59:37;5.10;91.70
48579;DHT22;34357;51.948;6.132;2023-12-22T05:02:02;5.30;91.50
48579;DHT22;34357;51.948;6.132;2023-12-22T05:04:28;5.40;91.30
48579;DHT22;34357;51.948;6.132;2023-12-22T05:06:54;5.50;90.90
48579;DHT22;34357;51.948;6.132;2023-12-22T05:09:19;5.60;90.60
48579;DHT22;34357;51.948;6.132;2023-12-22T05:11:45;5.70;90.40
48579;DHT22;34357;51.948;6.132;2023-12-22T05:14:11;5.90;90.30
48579;DHT22;34357;51.948;6.132;2023-12-22T05:16:37;5.90;90.40
48579;DHT22;34357;51.948;6.132;2023-12-22T05:19:02;5.90;90.90
48579;DHT22;34357;51.948;6.132;2023-12-22T05:21:28;5.90;91.00
48579;DHT22;34357;51.948;6.132;2023-12-22T05:23:54;5.90;91.10
48579;DHT22;34357;51.948;6.132;2023-12-22T05:26:21;5.80;91.10
48579;DHT22;34357;51.948;6.132;2023-12-22T05:28:47;5.80;91.30
48579;DHT22;34357;51.948;6.132;2023-12-22T05:31:15;5.80;91.30
48579;DHT22;34357;51.948;6.132;2023-12-22T05:33:41;5.90;91.10
48579;DHT22;34357;51.948;6.132;2023-12-22T05:36:07;5.90;91.20
48579;DHT22;34357;51.948;6.132;2023-12-22T05:38:37;5.90;91.20
48579;DHT22;34357;51.948;6.132;2023-12-22T05:41:04;5.80;91.40
48579;DHT22;34357;51.948;6.132;2023-12-22T05:43:30;5.70;91.50
48579;DHT22;34357;51.948;6.132;2023-12-22T05:45:56;5.80;91.60
48579;DHT22;34357;51.948;6.132;2023-12-22T05:48:22;5.70;91.70
48579;DHT22;34357;51.948;6.132;2023-12-22T05:50:48;5.70;91.70
48579;DHT22;34357;51.948;6.132;2023-12-22T05:53:14;5.70;91.80
48579;DHT22;34357;51.948;6.132;2023-12-22T05:55:40;5.70;91.80
48579;DHT22;34357;51.948;6.132;2023-12-22T05:58:06;5.70;91.70
48579;DHT22;34357;51.948;6.132;2023-12-22T06:00:32;5.70;91.70
48579;DHT22;34357;51.948;6.132;2023-12-22T06:02:57;5.70;91.80
48579;DHT22;34357;51.948;6.132;2023-12-22T06:05:23;5.80;91.80
48579;DHT22;34357;51.948;6.132;2023-12-22T06:07:49;5.70;91.80
48579;DHT22;34357;51.948;6.132;2023-12-22T06:10:15;5.60;91.90
48579;DHT22;34357;51.948;6.132;2023-12-22T06:12:40;5.70;92.10
48579;DHT22;34357;51.948;6.132;2023-12-22T06:15:06;5.70;92.10
48579;DHT22;34357;51.948;6.132;2023-12-22T06:17:32;5.70;92.10
48579;DHT22;34357;51.948;6.132;2023-12-22T06:19:58;5.60;92.30
48579;DHT22;34357;51.948;6.132;2023-12-22T06:22:23;5.70;92.30
48579;DHT22;34357;51.948;6.132;2023-12-22T06:24:49;5.60;92.30
48579;DHT22;34357;51.948;6.132;2023-12-22T06:27:15;5.60;92.40
48579;DHT22;34357;51.948;6.132;2023-12-22T06:29:40;5.60;92.40
48579;DHT22;34357;51.948;6.132;2023-12-22T06:32:06;5.60;92.30
48579;DHT22;34357;51.948;6.132;2023-12-22T06:34:33;5.60;92.40
48579;DHT22;34357;51.948;6.132;2023-12-22T06:36:58;5.70;92.30
48579;DHT22;34357;51.948;6.132;2023-12-22T06:39:24;5.70;92.30
48579;DHT22;34357;51.948;6.132;2023-12-22T06:41:50;5.80;92.20
48579;DHT22;34357;51.948;6.132;2023-12-22T06:44:16;5.90;92.00
48579;DHT22;34357;51.948;6.132;2023-12-22T06:46:42;5.90;92.00
48579;DHT22;34357;51.948;6.132;2023-12-22T06:49:08;6.00;91.70
48579;DHT22;34357;51.948;6.132;2023-12-22T06:51:34;6.10;91.50
48579;DHT22;34357;51.948;6.132;2023-12-22T06:54:01;6.20;91.40
48579;DHT22;34357;51.948;6.132;2023-12-22T06:56:28;6.40;91.10
48579;DHT22;34357;51.948;6.132;2023-12-22T06:58:56;6.40;90.90
48579;DHT22;34357;51.948;6.132;2023-12-22T07:01:30;6.60;90.60
48579;DHT22;34357;51.948;6.132;2023-12-22T07:04:00;6.80;90.30
48579;DHT22;34357;51.948;6.132;2023-12-22T07:06:31;6.80;90.50
48579;DHT22;34357;51.948;6.132;2023-12-22T07:09:27;6.90;90.10
48579;DHT22;34357;51.948;6.132;2023-12-22T07:11:48;7.00;90.10
48579;DHT22;34357;51.948;6.132;2023-12-22T07:14:14;7.10;89.60
48579;DHT22;34357;51.948;6.132;2023-12-22T07:16:40;7.20;89.30
48579;DHT22;34357;51.948;6.132;2023-12-22T07:19:08;7.30;89.00
48579;DHT22;34357;51.948;6.132;2023-12-22T07:21:33;7.20;89.00
48579;DHT22;34357;51.948;6.132;2023-12-22T07:23:59;7.20;89.20
48579;DHT22;34357;51.948;6.132;2023-12-22T07:26:27;7.20;89.30
48579;DHT22;34357;51.948;6.132;2023-12-22T07:28:53;7.30;89.50
48579;DHT22;34357;51.948;6.132;2023-12-22T07:31:19;7.20;89.60
48579;DHT22;34357;51.948;6.132;2023-12-22T07:33:45;7.30;89.40
48579;DHT22;34357;51.948;6.132;2023-12-22T07:36:11;7.30;89.60
48579;DHT22;34357;51.948;6.132;2023-12-22T07:38:38;7.30;89.60
48579;DHT22;34357;51.948;6.132;2023-12-22T07:41:05;7.30;89.40
48579;DHT22;34357;51.948;6.132;2023-12-22T07:43:31;7.30;89.50
48579;DHT22;34357;51.948;6.132;2023-12-22T07:45:56;7.40;89.60
48579;DHT22;34357;51.948;6.132;2023-12-22T07:48:22;7.50;89.30
48579;DHT22;34357;51.948;6.132;2023-12-22T07:50:50;7.40;89.50
48579;DHT22;34357;51.948;6.132;2023-12-22T07:53:15;7.50;89.30
48579;DHT22;34357;51.948;6.132;2023-12-22T07:55:41;7.50;89.50
48579;DHT22;34357;51.948;6.132;2023-12-22T07:58:07;7.50;89.10
48579;DHT22;34357;51.948;6.132;2023-12-22T08:00:33;7.60;88.80
48579;DHT22;34357;51.948;6.132;2023-12-22T08:02:59;7.60;88.60
48579;DHT22;34357;51.948;6.132;2023-12-22T08:05:26;7.60;88.70
48579;DHT22;34357;51.948;6.132;2023-12-22T08:07:51;7.70;88.80
48579;DHT22;34357;51.948;6.132;2023-12-22T08:10:17;7.70;88.70
48579;DHT22;34357;51.948;6.132;2023-12-22T08:12:43;7.80;88.80
48579;DHT22;34357;51.948;6.132;2023-12-22T08:15:09;7.80;88.70
48579;DHT22;34357;51.948;6.132;2023-12-22T08:17:48;7.80;88.80
48579;DHT22;34357;51.948;6.132;2023-12-22T08:20:18;7.90;88.50
48579;DHT22;34357;51.948;6.132;2023-12-22T08:22:48;7.90;88.80
48579;DHT22;34357;51.948;6.132;2023-12-22T08:25:15;7.90;88.60
48579;DHT22;34357;51.948;6.132;2023-12-22T08:27:42;7.90;88.80
48579;DHT22;34357;51.948;6.132;2023-12-22T08:30:08;7.80;89.10
48579;DHT22;34357;51.948;6.132;2023-12-22T08:32:35;7.80;89.70
48579;DHT22;34357;51.948;6.132;2023-12-22T08:35:01;7.70;90.10
48579;DHT22;34357;51.948;6.132;2023-12-22T08:37:26;7.40;89.50
48579;DHT22;34357;51.948;6.132;2023-12-22T08:39:52;7.30;90.10
48579;DHT22;34357;51.948;6.132;2023-12-22T08:42:18;7.20;90.80
48579;DHT22;34357;51.948;6.132;2023-12-22T08:44:44;7.10;91.20
48579;DHT22;34357;51.948;6.132;2023-12-22T08:47:09;7.00;91.50
48579;DHT22;34357;51.948;6.132;2023-12-22T08:49:35;7.00;91.80
48579;DHT22;34357;51.948;6.132;2023-12-22T08:52:01;6.90;91.90
48579;DHT22;34357;51.948;6.132;2023-12-22T08:54:29;7.00;92.10
48579;DHT22;34357;51.948;6.132;2023-12-22T08:56:55;6.90;92.20
48579;DHT22;34357;51.948;6.132;2023-12-22T08:59:21;6.90;92.40
48579;DHT22;34357;51.948;6.132;2023-12-22T09:01:47;7.00;92.50
48579;DHT22;34357;51.948;6.132;2023-12-22T09:04:12;7.10;92.60
48579;DHT22;34357;51.948;6.132;2023-12-22T09:06:38;7.10;92.60
48579;DHT22;34357;51.948;6.132;2023-12-22T09:09:05;7.10;92.60
48579;DHT22;34357;51.948;6.132;2023-12-22T09:11:31;7.30;92.70
48579;DHT22;34357;51.948;6.132;2023-12-22T09:13:57;7.30;92.80
48579;DHT22;34357;51.948;6.132;2023-12-22T09:16:24;7.30;92.90
48579;DHT22;34357;51.948;6.132;2023-12-22T09:18:52;7.40;92.90
48579;DHT22;34357;51.948;6.132;2023-12-22T09:21:18;7.40;92.70
48579;DHT22;34357;51.948;6.132;2023-12-22T09:23:45;7.50;92.80
48579;DHT22;34357;51.948;6.132;2023-12-22T09:26:13;7.50;92.80
48579;DHT22;34357;51.948;6.132;2023-12-22T09:28:39;7.50;92.60
48579;DHT22;34357;51.948;6.132;2023-12-22T09:31:06;7.60;92.60
48579;DHT22;34357;51.948;6.132;2023-12-22T09:33:32;7.70;92.50
48579;DHT22;34357;51.948;6.132;2023-12-22T09:35:58;7.70;92.20
48579;DHT22;34357;51.948;6.132;2023-12-22T09:38:24;7.70;92.20
48579;DHT22;34357;51.948;6.132;2023-12-22T09:40:50;7.80;92.20
48579;DHT22;34357;51.948;6.132;2023-12-22T09:43:16;7.80;92.30
48579;DHT22;34357;51.948;6.132;2023-12-22T09:45:45;7.90;92.40
48579;DHT22;34357;51.948;6.132;2023-12-22T09:48:12;7.90;92.40
48579;DHT22;34357;51.948;6.132;2023-12-22T09:50:46;7.90;92.20
48579;DHT22;34357;51.948;6.132;2023-12-22T09:53:15;8.00;92.10
48579;DHT22;34357;51.948;6.132;2023-12-22T09:55:46;8.10;92.10
48579;DHT22;34357;51.948;6.132;2023-12-22T09:58:14;8.00;92.10
48579;DHT22;34357;51.948;6.132;2023-12-22T10:00:40;8.00;92.40
48579;DHT22;34357;51.948;6.132;2023-12-22T10:03:07;8.10;92.50
48579;DHT22;34357;51.948;6.132;2023-12-22T10:05:33;8.20;92.50
48579;DHT22;34357;51.948;6.132;2023-12-22T10:08:00;8.20;92.70
48579;DHT22;34357;51.948;6.132;2023-12-22T10:10:30;8.10;92.70
48579;DHT22;34357;51.948;6.132;2023-12-22T10:12:56;8.10;92.50
48579;DHT22;34357;51.948;6.132;2023-12-22T10:15:24;8.00;92.30
48579;DHT22;34357;51.948;6.132;2023-12-22T10:17:56;8.00;92.00
48579;DHT22;34357;51.948;6.132;2023-12-22T10:20:22;8.00;91.60
48579;DHT22;34357;51.948;6.132;2023-12-22T10:22:47;7.90;91.70
48579;DHT22;34357;51.948;6.132;2023-12-22T10:25:20;7.90;91.70
48579;DHT22;34357;51.948;6.132;2023-12-22T10:27:46;7.90;91.70
48579;DHT22;34357;51.948;6.132;2023-12-22T10:30:12;7.80;91.70
48579;DHT22;34357;51.948;6.132;2023-12-22T10:32:41;7.80;91.80
48579;DHT22;34357;51.948;6.132;2023-12-22T10:35:09;7.70;91.90
48579;DHT22;34357;51.948;6.132;2023-12-22T10:37:35;7.70;92.20
48579;DHT22;34357;51.948;6.132;2023-12-22T10:40:04;7.70;92.40
48579;DHT22;34357;51.948;6.132;2023-12-22T10:42:32;7.80;92.30
48579;DHT22;34357;51.948;6.132;2023-12-22T10:44:57;7.70;92.50
48579;DHT22;34357;51.948;6.132;2023-12-22T10:47:23;7.80;92.50
48579;DHT22;34357;51.948;6.132;2023-12-22T10:49:49;7.80;92.50
48579;DHT22;34357;51.948;6.132;2023-12-22T10:52:16;7.80;92.70
48579;DHT22;34357;51.948;6.132;2023-12-22T10:54:43;7.90;92.90
48579;DHT22;34357;51.948;6.132;2023-12-22T10:57:10;8.00;93.00
48579;DHT22;34357;51.948;6.132;2023-12-22T10:59:40;8.10;92.90
48579;DHT22;34357;51.948;6.132;2023-12-22T11:02:15;8.20;92.80
48579;DHT22;34357;51.948;6.132;2023-12-22T11:04:41;8.30;92.70
48579;DHT22;34357;51.948;6.132;2023-12-22T11:07:10;8.40;92.90
48579;DHT22;34357;51.948;6.132;2023-12-22T11:09:38;8.50;92.70
48579;DHT22;34357;51.948;6.132;2023-12-22T11:12:05;8.60;92.70
48579;DHT22;34357;51.948;6.132;2023-12-22T11:14:32;8.60;92.30
48579;DHT22;34357;51.948;6.132;2023-12-22T11:17:00;8.80;91.90
48579;DHT22;34357;51.948;6.132;2023-12-22T11:19:30;8.80;91.60
48579;DHT22;34357;51.948;6.132;2023-12-22T11:21:57;8.80;91.70
48579;DHT22;34357;51.948;6.132;2023-12-22T11:24:25;8.90;92.00
48579;DHT22;34357;51.948;6.132;2023-12-22T11:26:54;8.90;92.20
48579;DHT22;34357;51.948;6.132;2023-12-22T11:29:24;8.80;91.60
48579;DHT22;34357;51.948;6.132;2023-12-22T11:31:53;8.80;91.30
48579;DHT22;34357;51.948;6.132;2023-12-22T11:34:22;8.80;91.10
48579;DHT22;34357;51.948;6.132;2023-12-22T11:36:50;8.80;91.10
48579;DHT22;34357;51.948;6.132;2023-12-22T11:39:17;8.90;90.80
48579;DHT22;34357;51.948;6.132;2023-12-22T11:41:43;8.90;90.90
48579;DHT22;34357;51.948;6.132;2023-12-22T11:44:10;8.90;91.20
48579;DHT22;34357;51.948;6.132;2023-12-22T11:46:36;8.90;91.40
48579;DHT22;34357;51.948;6.132;2023-12-22T11:49:02;8.90;91.60
48579;DHT22;34357;51.948;6.132;2023-12-22T11:51:32;8.90;91.90
48579;DHT22;34357;51.948;6.132;2023-12-22T11:54:00;8.90;92.20
48579;DHT22;34357;51.948;6.132;2023-12-22T11:56:28;8.90;92.30
48579;DHT22;34357;51.948;6.132;2023-12-22T11:58:54;9.10;92.40
48579;DHT22;34357;51.948;6.132;2023-12-22T12:01:23;9.20;92.10
48579;DHT22;34357;51.948;6.132;2023-12-22T12:03:51;9.20;91.50
48579;DHT22;34357;51.948;6.132;2023-12-22T12:09:01;9.10;91.00
48579;DHT22;34357;51.948;6.132;2023-12-22T12:14:41;9.10;90.60
48579;DHT22;34357;51.948;6.132;2023-12-22T12:17:07;8.60;91.00
48579;DHT22;34357;51.948;6.132;2023-12-22T12:19:42;8.40;91.70
48579;DHT22;34357;51.948;6.132;2023-12-22T12:22:08;8.40;92.20
48579;DHT22;34357;51.948;6.132;2023-12-22T12:24:36;8.50;92.80
48579;DHT22;34357;51.948;6.132;2023-12-22T12:27:02;8.60;92.90
48579;DHT22;34357;51.948;6.132;2023-12-22T12:29:28;8.70;92.90
48579;DHT22;34357;51.948;6.132;2023-12-22T12:32:02;8.60;92.80
48579;DHT22;34357;51.948;6.132;2023-12-22T12:34:29;8.60;92.70
48579;DHT22;34357;51.948;6.132;2023-12-22T12:36:55;8.60;92.80
48579;DHT22;34357;51.948;6.132;2023-12-22T12:39:22;8.60;92.90
48579;DHT22;34357;51.948;6.132;2023-12-22T12:41:54;8.60;93.00
48579;DHT22;34357;51.948;6.132;2023-12-22T12:44:21;8.60;93.20
48579;DHT22;34357;51.948;6.132;2023-12-22T12:46:47;8.70;92.90
48579;DHT22;34357;51.948;6.132;2023-12-22T12:49:13;8.70;93.10
48579;DHT22;34357;51.948;6.132;2023-12-22T12:51:43;8.70;92.90
48579;DHT22;34357;51.948;6.132;2023-12-22T12:54:10;8.70;92.90
48579;DHT22;34357;51.948;6.132;2023-12-22T12:56:44;8.70;93.00
48579;DHT22;34357;51.948;6.132;2023-12-22T12:59:16;8.80;92.90
48579;DHT22;34357;51.948;6.132;2023-12-22T13:01:47;8.80;92.90
48579;DHT22;34357;51.948;6.132;2023-12-22T13:04:14;8.80;92.80
48579;DHT22;34357;51.948;6.132;2023-12-22T13:06:44;8.90;92.80
48579;DHT22;34357;51.948;6.132;2023-12-22T13:09:10;8.90;92.60
48579;DHT22;34357;51.948;6.132;2023-12-22T13:11:36;9.00;92.40
48579;DHT22;34357;51.948;6.132;2023-12-22T13:14:03;9.10;91.70
48579;DHT22;34357;51.948;6.132;2023-12-22T13:16:29;9.10;91.40
48579;DHT22;34357;51.948;6.132;2023-12-22T13:18:57;9.20;91.20
48579;DHT22;34357;51.948;6.132;2023-12-22T13:21:26;9.20;90.60
48579;DHT22;34357;51.948;6.132;2023-12-22T13:24:11;9.10;90.80
48579;DHT22;34357;51.948;6.132;2023-12-22T13:26:38;9.10;91.20
48579;DHT22;34357;51.948;6.132;2023-12-22T13:29:05;9.10;90.80
48579;DHT22;34357;51.948;6.132;2023-12-22T13:31:38;9.20;90.80
48579;DHT22;34357;51.948;6.132;2023-12-22T13:34:11;9.20;90.40
48579;DHT22;34357;51.948;6.132;2023-12-22T13:36:38;9.30;90.30
48579;DHT22;34357;51.948;6.132;2023-12-22T13:39:05;9.30;90.30
48579;DHT22;34357;51.948;6.132;2023-12-22T13:41:35;9.40;90.20
48579;DHT22;34357;51.948;6.132;2023-12-22T13:44:04;9.40;90.30
48579;DHT22;34357;51.948;6.132;2023-12-22T13:46:30;9.40;90.50
48579;DHT22;34357;51.948;6.132;2023-12-22T13:48:57;9.40;89.90
48579;DHT22;34357;51.948;6.132;2023-12-22T13:51:23;9.40;89.90
48579;DHT22;34357;51.948;6.132;2023-12-22T13:53:49;9.40;90.30
48579;DHT22;34357;51.948;6.132;2023-12-22T13:56:15;9.40;90.00
48579;DHT22;34357;51.948;6.132;2023-12-22T13:58:45;9.40;90.30
48579;DHT22;34357;51.948;6.132;2023-12-22T14:01:16;9.30;90.20
48579;DHT22;34357;51.948;6.132;2023-12-22T14:03:45;9.40;90.10
48579;DHT22;34357;51.948;6.132;2023-12-22T14:06:11;9.40;89.50
48579;DHT22;34357;51.948;6.132;2023-12-22T14:08:41;9.40;89.40
48579;DHT22;34357;51.948;6.132;2023-12-22T14:11:07;9.30;89.80
48579;DHT22;34357;51.948;6.132;2023-12-22T14:13:33;9.30;89.70
48579;DHT22;34357;51.948;6.132;2023-12-22T14:16:05;9.20;90.50
48579;DHT22;34357;51.948;6.132;2023-12-22T14:18:31;9.10;90.90
48579;DHT22;34357;51.948;6.132;2023-12-22T14:20:57;9.10;91.20
48579;DHT22;34357;51.948;6.132;2023-12-22T14:23:24;9.10;91.70
48579;DHT22;34357;51.948;6.132;2023-12-22T14:25:50;9.00;92.10
48579;DHT22;34357;51.948;6.132;2023-12-22T14:28:16;9.00;91.90
48579;DHT22;34357;51.948;6.132;2023-12-22T14:30:41;9.00;91.90
48579;DHT22;34357;51.948;6.132;2023-12-22T14:33:08;9.00;92.10
48579;DHT22;34357;51.948;6.132;2023-12-22T14:35:35;9.00;92.00
48579;DHT22;34357;51.948;6.132;2023-12-22T14:38:02;9.20;91.40
48579;DHT22;34357;51.948;6.132;2023-12-22T14:40:27;9.10;91.40
48579;DHT22;34357;51.948;6.132;2023-12-22T14:42:53;9.10;91.30
48579;DHT22;34357;51.948;6.132;2023-12-22T14:45:19;9.10;91.30
48579;DHT22;34357;51.948;6.132;2023-12-22T14:47:44;9.00;91.60
48579;DHT22;34357;51.948;6.132;2023-12-22T14:50:10;9.00;91.80
48579;DHT22;34357;51.948;6.132;2023-12-22T14:52:36;8.90;91.80
48579;DHT22;34357;51.948;6.132;2023-12-22T14:55:02;8.90;92.10
48579;DHT22;34357;51.948;6.132;2023-12-22T14:57:29;8.90;92.50
48579;DHT22;34357;51.948;6.132;2023-12-22T14:59:55;8.90;92.60
48579;DHT22;34357;51.948;6.132;2023-12-22T15:02:22;8.90;92.70
48579;DHT22;34357;51.948;6.132;2023-12-22T15:04:47;9.00;92.40
48579;DHT22;34357;51.948;6.132;2023-12-22T15:07:19;9.00;92.40
48579;DHT22;34357;51.948;6.132;2023-12-22T15:09:45;9.00;92.20
48579;DHT22;34357;51.948;6.132;2023-12-22T15:12:16;9.00;91.80
48579;DHT22;34357;51.948;6.132;2023-12-22T15:14:46;9.10;91.50
48579;DHT22;34357;51.948;6.132;2023-12-22T15:17:11;9.10;91.50
48579;DHT22;34357;51.948;6.132;2023-12-22T15:19:41;9.20;91.10
48579;DHT22;34357;51.948;6.132;2023-12-22T15:22:10;9.20;90.70
48579;DHT22;34357;51.948;6.132;2023-12-22T15:24:43;9.30;90.60
48579;DHT22;34357;51.948;6.132;2023-12-22T15:27:10;9.20;90.80
48579;DHT22;34357;51.948;6.132;2023-12-22T15:29:36;9.20;90.70
48579;DHT22;34357;51.948;6.132;2023-12-22T15:32:01;9.30;90.60
48579;DHT22;34357;51.948;6.132;2023-12-22T15:34:27;9.30;90.50
48579;DHT22;34357;51.948;6.132;2023-12-22T15:36:53;9.40;90.20
48579;DHT22;34357;51.948;6.132;2023-12-22T15:39:20;9.30;90.40
48579;DHT22;34357;51.948;6.132;2023-12-22T15:41:47;9.20;90.60
48579;DHT22;34357;51.948;6.132;2023-12-22T15:44:13;9.30;90.10
48579;DHT22;34357;51.948;6.132;2023-12-22T15:46:39;9.30;90.30
48579;DHT22;34357;51.948;6.132;2023-12-22T15:49:05;9.30;90.40
48579;DHT22;34357;51.948;6.132;2023-12-22T15:51:31;9.30;90.20